sensor_id;sensor_type;location;lat;lon;timestamp;P1;durP1;ratioP1;P2;durP2;ratioP2
1589;SDS011;788;48.720;9.158;2022-08-19T00:02:19;16.93;;;15.40;;
1589;SDS011;788;48.720;9.158;2022-08-19T00:04:45;18.57;;;16.80;;
1589;SDS011;788;48.720;9.158;2022-08-19T00:07:17;16.97;;;15.57;;
1589;SDS011;788;48.720;9.158;2022-08-19T00:09:44;19.30;;;16.53;;
1589;SDS011;788;48.720;9.158;2022-08-19T00:12:11;18.17;;;16.47;;
1589;SDS011;788;48.720;9.158;2022-08-19T00:14:40;15.83;;;14.40;;
1589;SDS011;788;48.720;9.158;2022-08-19T00:17:07;17.30;;;15.70;;
1589;SDS011;788;48.720;9.158;2022-08-19T00:19:35;16.73;;;15.13;;
1589;SDS011;788;48.720;9.158;2022-08-19T00:22:03;17.87;;;16.13;;
1589;SDS011;788;48.720;9.158;2022-08-19T00:24:30;16.63;;;15.10;;
1589;SDS011;788;48.720;9.158;2022-08-19T00:26:58;15.97;;;14.37;;
1589;SDS011;788;48.720;9.158;2022-08-19T00:29:26;16.07;;;14.47;;
1589;SDS011;788;48.720;9.158;2022-08-19T00:31:55;17.77;;;16.07;;
1589;SDS011;788;48.720;9.158;2022-08-19T00:34:24;18.13;;;16.23;;
1589;SDS011;788;48.720;9.158;2022-08-19T00:36:53;15.80;;;14.30;;
1589;SDS011;788;48.720;9.158;2022-08-19T00:39:20;16.80;;;15.10;;
1589;SDS011;788;48.720;9.158;2022-08-19T00:41:47;16.70;;;15.00;;
1589;SDS011;788;48.720;9.158;2022-08-19T00:44:17;17.00;;;15.33;;
1589;SDS011;788;48.720;9.158;2022-08-19T00:46:46;16.60;;;14.93;;
1589;SDS011;788;48.720;9.158;2022-08-19T00:49:16;16.63;;;15.07;;
1589;SDS011;788;48.720;9.158;2022-08-19T00:51:51;17.00;;;15.40;;
1589;SDS011;788;48.720;9.158;2022-08-19T00:54:21;16.23;;;14.73;;
1589;SDS011;788;48.720;9.158;2022-08-19T00:56:49;17.13;;;15.30;;
1589;SDS011;788;48.720;9.158;2022-08-19T00:59:16;17.10;;;15.50;;
1589;SDS011;788;48.720;9.158;2022-08-19T01:01:44;17.50;;;15.87;;
1589;SDS011;788;48.720;9.158;2022-08-19T01:04:13;18.27;;;16.47;;
1589;SDS011;788;48.720;9.158;2022-08-19T01:06:41;20.07;;;17.97;;
1589;SDS011;788;48.720;9.158;2022-08-19T01:09:08;18.47;;;16.00;;
1589;SDS011;788;48.720;9.158;2022-08-19T01:11:36;21.70;;;17.97;;
1589;SDS011;788;48.720;9.158;2022-08-19T01:14:07;20.00;;;16.70;;
1589;SDS011;788;48.720;9.158;2022-08-19T01:16:35;18.27;;;16.40;;
1589;SDS011;788;48.720;9.158;2022-08-19T01:19:03;18.60;;;16.77;;
1589;SDS011;788;48.720;9.158;2022-08-19T01:21:39;18.20;;;16.50;;
1589;SDS011;788;48.720;9.158;2022-08-19T01:24:13;19.20;;;17.30;;
1589;SDS011;788;48.720;9.158;2022-08-19T01:26:41;17.93;;;16.13;;
1589;SDS011;788;48.720;9.158;2022-08-19T01:29:09;18.77;;;16.77;;
1589;SDS011;788;48.720;9.158;2022-08-19T01:31:36;17.80;;;16.10;;
1589;SDS011;788;48.720;9.158;2022-08-19T01:34:04;19.43;;;17.40;;
1589;SDS011;788;48.720;9.158;2022-08-19T01:36:33;19.37;;;17.63;;
1589;SDS011;788;48.720;9.158;2022-08-19T01:39:03;18.40;;;16.50;;
1589;SDS011;788;48.720;9.158;2022-08-19T01:41:33;17.80;;;15.93;;
1589;SDS011;788;48.720;9.158;2022-08-19T01:44:00;16.70;;;15.20;;
1589;SDS011;788;48.720;9.158;2022-08-19T01:46:29;20.13;;;18.07;;
1589;SDS011;788;48.720;9.158;2022-08-19T01:48:56;19.47;;;17.53;;
1589;SDS011;788;48.720;9.158;2022-08-19T01:51:23;19.73;;;16.90;;
1589;SDS011;788;48.720;9.158;2022-08-19T01:53:50;19.97;;;17.70;;
1589;SDS011;788;48.720;9.158;2022-08-19T01:56:17;18.53;;;16.80;;
1589;SDS011;788;48.720;9.158;2022-08-19T01:58:46;18.80;;;16.93;;
1589;SDS011;788;48.720;9.158;2022-08-19T02:01:17;20.87;;;17.97;;
1589;SDS011;788;48.720;9.158;2022-08-19T02:03:44;20.07;;;18.07;;
1589;SDS011;788;48.720;9.158;2022-08-19T02:06:11;20.83;;;18.83;;
1589;SDS011;788;48.720;9.158;2022-08-19T02:08:38;18.40;;;16.50;;
1589;SDS011;788;48.720;9.158;2022-08-19T02:11:06;19.30;;;17.33;;
1589;SDS011;788;48.720;9.158;2022-08-19T02:13:33;19.87;;;17.90;;
1589;SDS011;788;48.720;9.158;2022-08-19T02:16:02;19.33;;;17.43;;
1589;SDS011;788;48.720;9.158;2022-08-19T02:18:29;18.87;;;17.07;;
1589;SDS011;788;48.720;9.158;2022-08-19T02:20:55;19.27;;;17.37;;
1589;SDS011;788;48.720;9.158;2022-08-19T02:23:22;21.10;;;18.87;;
1589;SDS011;788;48.720;9.158;2022-08-19T02:25:49;19.80;;;17.70;;
1589;SDS011;788;48.720;9.158;2022-08-19T02:28:17;22.70;;;19.20;;
1589;SDS011;788;48.720;9.158;2022-08-19T02:30:44;19.90;;;17.87;;
1589;SDS011;788;48.720;9.158;2022-08-19T02:33:13;19.73;;;17.70;;
1589;SDS011;788;48.720;9.158;2022-08-19T02:35:40;19.87;;;17.77;;
1589;SDS011;788;48.720;9.158;2022-08-19T02:38:08;22.03;;;18.40;;
1589;SDS011;788;48.720;9.158;2022-08-19T02:40:54;20.00;;;17.90;;
1589;SDS011;788;48.720;9.158;2022-08-19T02:43:22;22.27;;;19.27;;
1589;SDS011;788;48.720;9.158;2022-08-19T02:45:50;21.03;;;18.93;;
1589;SDS011;788;48.720;9.158;2022-08-19T02:48:20;22.90;;;20.50;;
1589;SDS011;788;48.720;9.158;2022-08-19T02:50:48;23.70;;;21.30;;
1589;SDS011;788;48.720;9.158;2022-08-19T02:53:20;23.83;;;20.73;;
1589;SDS011;788;48.720;9.158;2022-08-19T02:55:48;19.70;;;16.93;;
1589;SDS011;788;48.720;9.158;2022-08-19T02:58:15;22.20;;;19.33;;
1589;SDS011;788;48.720;9.158;2022-08-19T03:00:43;19.97;;;17.83;;
1589;SDS011;788;48.720;9.158;2022-08-19T03:03:12;25.43;;;21.23;;
1589;SDS011;788;48.720;9.158;2022-08-19T03:05:41;23.30;;;20.10;;
1589;SDS011;788;48.720;9.158;2022-08-19T03:08:08;23.33;;;20.40;;
1589;SDS011;788;48.720;9.158;2022-08-19T03:10:40;22.57;;;20.47;;
1589;SDS011;788;48.720;9.158;2022-08-19T03:13:09;25.57;;;21.47;;
1589;SDS011;788;48.720;9.158;2022-08-19T03:15:39;23.83;;;21.23;;
1589;SDS011;788;48.720;9.158;2022-08-19T03:18:06;22.73;;;20.33;;
1589;SDS011;788;48.720;9.158;2022-08-19T03:20:33;25.50;;;21.07;;
1589;SDS011;788;48.720;9.158;2022-08-19T03:23:01;24.60;;;22.00;;
1589;SDS011;788;48.720;9.158;2022-08-19T03:25:28;28.00;;;25.07;;
1589;SDS011;788;48.720;9.158;2022-08-19T03:27:55;26.93;;;21.30;;
1589;SDS011;788;48.720;9.158;2022-08-19T03:30:21;27.43;;;23.33;;
1589;SDS011;788;48.720;9.158;2022-08-19T03:32:48;27.80;;;23.97;;
1589;SDS011;788;48.720;9.158;2022-08-19T03:35:15;25.30;;;22.50;;
1589;SDS011;788;48.720;9.158;2022-08-19T03:37:41;25.70;;;23.00;;
1589;SDS011;788;48.720;9.158;2022-08-19T03:40:10;25.07;;;22.10;;
1589;SDS011;788;48.720;9.158;2022-08-19T03:42:37;22.83;;;20.50;;
1589;SDS011;788;48.720;9.158;2022-08-19T03:45:05;25.13;;;21.33;;
1589;SDS011;788;48.720;9.158;2022-08-19T03:47:33;22.37;;;20.33;;
1589;SDS011;788;48.720;9.158;2022-08-19T03:49:59;28.40;;;22.27;;
1589;SDS011;788;48.720;9.158;2022-08-19T03:52:27;25.63;;;20.67;;
1589;SDS011;788;48.720;9.158;2022-08-19T03:54:53;25.07;;;22.37;;
1589;SDS011;788;48.720;9.158;2022-08-19T03:57:21;24.40;;;21.77;;
1589;SDS011;788;48.720;9.158;2022-08-19T03:59:48;27.30;;;24.60;;
1589;SDS011;788;48.720;9.158;2022-08-19T04:02:15;27.57;;;24.73;;
1589;SDS011;788;48.720;9.158;2022-08-19T04:04:43;25.33;;;22.83;;
1589;SDS011;788;48.720;9.158;2022-08-19T04:07:10;25.30;;;22.60;;
1589;SDS011;788;48.720;9.158;2022-08-19T04:09:40;25.63;;;23.13;;
1589;SDS011;788;48.720;9.158;2022-08-19T04:12:07;24.87;;;22.20;;
1589;SDS011;788;48.720;9.158;2022-08-19T04:14:35;26.27;;;21.43;;
1589;SDS011;788;48.720;9.158;2022-08-19T04:17:02;26.23;;;23.37;;
1589;SDS011;788;48.720;9.158;2022-08-19T04:19:30;26.13;;;23.40;;
1589;SDS011;788;48.720;9.158;2022-08-19T04:21:58;26.57;;;23.77;;
1589;SDS011;788;48.720;9.158;2022-08-19T04:24:25;25.70;;;23.03;;
1589;SDS011;788;48.720;9.158;2022-08-19T04:26:52;29.83;;;24.87;;
1589;SDS011;788;48.720;9.158;2022-08-19T04:29:20;26.73;;;22.73;;
1589;SDS011;788;48.720;9.158;2022-08-19T04:31:51;29.20;;;26.10;;
1589;SDS011;788;48.720;9.158;2022-08-19T04:34:20;28.53;;;24.30;;
1589;SDS011;788;48.720;9.158;2022-08-19T04:36:48;28.40;;;25.53;;
1589;SDS011;788;48.720;9.158;2022-08-19T04:39:17;29.60;;;26.40;;
1589;SDS011;788;48.720;9.158;2022-08-19T04:41:46;30.77;;;25.67;;
1589;SDS011;788;48.720;9.158;2022-08-19T04:44:30;27.43;;;24.53;;
1589;SDS011;788;48.720;9.158;2022-08-19T04:46:58;29.53;;;25.90;;
1589;SDS011;788;48.720;9.158;2022-08-19T04:49:25;31.30;;;24.50;;
1589;SDS011;788;48.720;9.158;2022-08-19T04:51:53;28.30;;;25.30;;
1589;SDS011;788;48.720;9.158;2022-08-19T04:54:21;28.87;;;24.37;;
1589;SDS011;788;48.720;9.158;2022-08-19T04:56:50;27.03;;;24.20;;
1589;SDS011;788;48.720;9.158;2022-08-19T04:59:23;25.70;;;23.03;;
1589;SDS011;788;48.720;9.158;2022-08-19T05:01:50;26.90;;;24.03;;
1589;SDS011;788;48.720;9.158;2022-08-19T05:04:23;32.10;;;27.37;;
1589;SDS011;788;48.720;9.158;2022-08-19T05:06:50;27.90;;;25.10;;
1589;SDS011;788;48.720;9.158;2022-08-19T05:09:18;27.93;;;25.23;;
1589;SDS011;788;48.720;9.158;2022-08-19T05:11:47;25.10;;;22.60;;
1589;SDS011;788;48.720;9.158;2022-08-19T05:14:17;27.10;;;23.40;;
1589;SDS011;788;48.720;9.158;2022-08-19T05:16:47;27.07;;;24.27;;
1589;SDS011;788;48.720;9.158;2022-08-19T05:19:17;25.87;;;23.37;;
1589;SDS011;788;48.720;9.158;2022-08-19T05:22:07;26.00;;;23.20;;
1589;SDS011;788;48.720;9.158;2022-08-19T05:24:52;26.87;;;23.13;;
1589;SDS011;788;48.720;9.158;2022-08-19T05:27:19;26.07;;;23.43;;
1589;SDS011;788;48.720;9.158;2022-08-19T05:29:46;26.07;;;23.37;;
1589;SDS011;788;48.720;9.158;2022-08-19T05:32:14;29.40;;;24.77;;
1589;SDS011;788;48.720;9.158;2022-08-19T05:34:40;27.33;;;24.27;;
1589;SDS011;788;48.720;9.158;2022-08-19T05:37:10;28.10;;;25.20;;
1589;SDS011;788;48.720;9.158;2022-08-19T05:39:37;28.17;;;25.57;;
1589;SDS011;788;48.720;9.158;2022-08-19T05:42:06;25.70;;;23.00;;
1589;SDS011;788;48.720;9.158;2022-08-19T05:44:36;26.77;;;23.90;;
1589;SDS011;788;48.720;9.158;2022-08-19T05:47:05;27.67;;;24.90;;
1589;SDS011;788;48.720;9.158;2022-08-19T05:49:33;27.47;;;24.60;;
1589;SDS011;788;48.720;9.158;2022-08-19T05:52:01;25.47;;;22.87;;
1589;SDS011;788;48.720;9.158;2022-08-19T05:54:32;27.10;;;24.40;;
1589;SDS011;788;48.720;9.158;2022-08-19T05:57:01;25.53;;;22.77;;
1589;SDS011;788;48.720;9.158;2022-08-19T06:16:53;25.10;;;22.53;;
1589;SDS011;788;48.720;9.158;2022-08-19T06:20:18;25.90;;;22.53;;
1589;SDS011;788;48.720;9.158;2022-08-19T06:22:48;25.77;;;23.00;;
1589;SDS011;788;48.720;9.158;2022-08-19T06:25:16;28.40;;;25.53;;
1589;SDS011;788;48.720;9.158;2022-08-19T06:27:44;25.10;;;22.47;;
1589;SDS011;788;48.720;9.158;2022-08-19T06:30:12;27.23;;;24.50;;
1589;SDS011;788;48.720;9.158;2022-08-19T06:32:39;27.13;;;24.13;;
1589;SDS011;788;48.720;9.158;2022-08-19T06:35:07;27.97;;;24.23;;
1589;SDS011;788;48.720;9.158;2022-08-19T06:37:34;27.00;;;24.07;;
1589;SDS011;788;48.720;9.158;2022-08-19T06:40:02;26.77;;;23.90;;
1589;SDS011;788;48.720;9.158;2022-08-19T06:42:30;26.90;;;24.20;;
1589;SDS011;788;48.720;9.158;2022-08-19T06:44:58;26.40;;;23.70;;
1589;SDS011;788;48.720;9.158;2022-08-19T06:47:29;25.23;;;22.70;;
1589;SDS011;788;48.720;9.158;2022-08-19T06:49:57;29.20;;;26.00;;
1589;SDS011;788;48.720;9.158;2022-08-19T06:52:27;29.43;;;26.07;;
1589;SDS011;788;48.720;9.158;2022-08-19T06:54:54;29.40;;;26.40;;
1589;SDS011;788;48.720;9.158;2022-08-19T06:57:21;27.60;;;24.90;;
1589;SDS011;788;48.720;9.158;2022-08-19T06:59:49;29.00;;;26.10;;
1589;SDS011;788;48.720;9.158;2022-08-19T07:02:19;30.10;;;26.90;;
1589;SDS011;788;48.720;9.158;2022-08-19T07:05:02;28.93;;;25.93;;
1589;SDS011;788;48.720;9.158;2022-08-19T07:07:50;29.17;;;25.57;;
1589;SDS011;788;48.720;9.158;2022-08-19T07:10:18;29.67;;;25.60;;
1589;SDS011;788;48.720;9.158;2022-08-19T07:12:47;29.87;;;26.63;;
1589;SDS011;788;48.720;9.158;2022-08-19T07:15:20;29.40;;;25.67;;
1589;SDS011;788;48.720;9.158;2022-08-19T07:21:05;31.47;;;27.43;;
1589;SDS011;788;48.720;9.158;2022-08-19T07:23:38;29.00;;;25.90;;
1589;SDS011;788;48.720;9.158;2022-08-19T07:26:20;31.47;;;26.33;;
1589;SDS011;788;48.720;9.158;2022-08-19T07:29:19;25.30;;;22.57;;
1589;SDS011;788;48.720;9.158;2022-08-19T07:31:51;26.27;;;23.67;;
1589;SDS011;788;48.720;9.158;2022-08-19T07:34:26;26.00;;;23.20;;
1589;SDS011;788;48.720;9.158;2022-08-19T07:37:08;29.17;;;24.83;;
1589;SDS011;788;48.720;9.158;2022-08-19T07:50:16;25.17;;;22.57;;
1589;SDS011;788;48.720;9.158;2022-08-19T07:53:09;25.73;;;22.80;;
1589;SDS011;788;48.720;9.158;2022-08-19T07:56:01;27.73;;;24.73;;
1589;SDS011;788;48.720;9.158;2022-08-19T07:58:36;32.50;;;24.47;;
1589;SDS011;788;48.720;9.158;2022-08-19T08:01:19;27.13;;;24.17;;
1589;SDS011;788;48.720;9.158;2022-08-19T08:03:49;26.37;;;23.50;;
1589;SDS011;788;48.720;9.158;2022-08-19T08:06:34;28.23;;;25.13;;
1589;SDS011;788;48.720;9.158;2022-08-19T08:09:21;33.27;;;29.80;;
1589;SDS011;788;48.720;9.158;2022-08-19T08:11:51;27.53;;;24.07;;
1589;SDS011;788;48.720;9.158;2022-08-19T08:14:21;27.53;;;24.63;;
1589;SDS011;788;48.720;9.158;2022-08-19T08:16:49;30.67;;;25.97;;
1589;SDS011;788;48.720;9.158;2022-08-19T08:19:20;25.67;;;23.00;;
1589;SDS011;788;48.720;9.158;2022-08-19T08:21:49;29.70;;;26.60;;
1589;SDS011;788;48.720;9.158;2022-08-19T08:24:16;36.90;;;24.60;;
1589;SDS011;788;48.720;9.158;2022-08-19T08:26:45;31.73;;;26.33;;
1589;SDS011;788;48.720;9.158;2022-08-19T08:29:12;28.00;;;25.10;;
1589;SDS011;788;48.720;9.158;2022-08-19T08:31:46;34.73;;;27.37;;
1589;SDS011;788;48.720;9.158;2022-08-19T08:34:14;28.70;;;25.60;;
1589;SDS011;788;48.720;9.158;2022-08-19T08:36:43;30.70;;;27.40;;
1589;SDS011;788;48.720;9.158;2022-08-19T08:46:18;36.87;;;32.83;;
1589;SDS011;788;48.720;9.158;2022-08-19T08:48:51;35.50;;;30.77;;
1589;SDS011;788;48.720;9.158;2022-08-19T08:51:24;35.20;;;31.63;;
1589;SDS011;788;48.720;9.158;2022-08-19T08:56:53;32.70;;;27.53;;
1589;SDS011;788;48.720;9.158;2022-08-19T08:59:25;41.80;;;31.67;;
1589;SDS011;788;48.720;9.158;2022-08-19T09:01:59;33.67;;;28.83;;
1589;SDS011;788;48.720;9.158;2022-08-19T09:04:26;34.43;;;30.73;;
1589;SDS011;788;48.720;9.158;2022-08-19T09:06:55;33.37;;;29.47;;
1589;SDS011;788;48.720;9.158;2022-08-19T09:09:34;36.87;;;30.87;;
1589;SDS011;788;48.720;9.158;2022-08-19T09:12:06;35.87;;;30.17;;
1589;SDS011;788;48.720;9.158;2022-08-19T09:14:43;32.97;;;27.90;;
1589;SDS011;788;48.720;9.158;2022-08-19T09:17:14;31.80;;;28.50;;
1589;SDS011;788;48.720;9.158;2022-08-19T09:19:49;33.00;;;29.50;;
1589;SDS011;788;48.720;9.158;2022-08-19T09:22:18;33.60;;;28.87;;
1589;SDS011;788;48.720;9.158;2022-08-19T09:24:47;33.20;;;29.83;;
1589;SDS011;788;48.720;9.158;2022-08-19T09:27:14;33.80;;;29.30;;
1589;SDS011;788;48.720;9.158;2022-08-19T09:29:42;30.00;;;26.87;;
1589;SDS011;788;48.720;9.158;2022-08-19T09:32:10;32.80;;;27.50;;
1589;SDS011;788;48.720;9.158;2022-08-19T09:34:52;30.57;;;27.40;;
1589;SDS011;788;48.720;9.158;2022-08-19T09:37:19;27.70;;;24.90;;
1589;SDS011;788;48.720;9.158;2022-08-19T09:39:47;29.30;;;25.90;;
1589;SDS011;788;48.720;9.158;2022-08-19T09:42:14;26.33;;;23.80;;
1589;SDS011;788;48.720;9.158;2022-08-19T09:44:44;31.13;;;25.10;;
1589;SDS011;788;48.720;9.158;2022-08-19T09:47:15;28.83;;;25.80;;
1589;SDS011;788;48.720;9.158;2022-08-19T09:49:57;29.70;;;26.60;;
1589;SDS011;788;48.720;9.158;2022-08-19T09:52:36;28.53;;;25.57;;
1589;SDS011;788;48.720;9.158;2022-08-19T09:55:04;27.43;;;24.57;;
1589;SDS011;788;48.720;9.158;2022-08-19T09:57:33;26.90;;;24.20;;
1589;SDS011;788;48.720;9.158;2022-08-19T10:00:01;26.77;;;23.77;;
1589;SDS011;788;48.720;9.158;2022-08-19T10:02:35;25.07;;;22.43;;
1589;SDS011;788;48.720;9.158;2022-08-19T10:05:04;26.77;;;23.50;;
1589;SDS011;788;48.720;9.158;2022-08-19T10:07:53;26.03;;;23.60;;
1589;SDS011;788;48.720;9.158;2022-08-19T10:10:20;26.10;;;23.53;;
1589;SDS011;788;48.720;9.158;2022-08-19T10:13:02;25.33;;;22.83;;
1589;SDS011;788;48.720;9.158;2022-08-19T10:18:48;27.07;;;24.37;;
1589;SDS011;788;48.720;9.158;2022-08-19T10:24:29;28.90;;;25.80;;
1589;SDS011;788;48.720;9.158;2022-08-19T10:27:00;27.37;;;24.73;;
1589;SDS011;788;48.720;9.158;2022-08-19T10:29:39;25.77;;;23.27;;
1589;SDS011;788;48.720;9.158;2022-08-19T10:39:27;26.40;;;23.67;;
1589;SDS011;788;48.720;9.158;2022-08-19T10:45:05;26.50;;;24.00;;
1589;SDS011;788;48.720;9.158;2022-08-19T10:47:36;27.43;;;24.53;;
1589;SDS011;788;48.720;9.158;2022-08-19T10:50:03;28.53;;;24.37;;
1589;SDS011;788;48.720;9.158;2022-08-19T10:52:50;25.93;;;23.10;;
1589;SDS011;788;48.720;9.158;2022-08-19T10:55:19;26.43;;;23.63;;
1589;SDS011;788;48.720;9.158;2022-08-19T10:58:09;27.70;;;25.10;;
1589;SDS011;788;48.720;9.158;2022-08-19T11:00:37;28.40;;;25.60;;
1589;SDS011;788;48.720;9.158;2022-08-19T11:03:05;24.97;;;22.57;;
1589;SDS011;788;48.720;9.158;2022-08-19T11:05:34;23.93;;;21.60;;
1589;SDS011;788;48.720;9.158;2022-08-19T11:08:02;24.23;;;21.57;;
1589;SDS011;788;48.720;9.158;2022-08-19T11:10:31;22.73;;;20.50;;
1589;SDS011;788;48.720;9.158;2022-08-19T11:12:58;22.77;;;20.03;;
1589;SDS011;788;48.720;9.158;2022-08-19T11:15:25;22.40;;;20.20;;
1589;SDS011;788;48.720;9.158;2022-08-19T11:17:53;25.47;;;20.60;;
1589;SDS011;788;48.720;9.158;2022-08-19T11:20:20;21.03;;;19.10;;
1589;SDS011;788;48.720;9.158;2022-08-19T11:22:48;25.03;;;21.50;;
1589;SDS011;788;48.720;9.158;2022-08-19T11:25:18;20.80;;;18.70;;
1589;SDS011;788;48.720;9.158;2022-08-19T11:27:47;21.23;;;19.33;;
1589;SDS011;788;48.720;9.158;2022-08-19T11:30:16;21.43;;;19.37;;
1589;SDS011;788;48.720;9.158;2022-08-19T11:32:42;23.50;;;19.47;;
1589;SDS011;788;48.720;9.158;2022-08-19T11:35:09;20.67;;;18.27;;
1589;SDS011;788;48.720;9.158;2022-08-19T11:37:36;19.17;;;17.27;;
1589;SDS011;788;48.720;9.158;2022-08-19T11:40:05;20.83;;;18.80;;
1589;SDS011;788;48.720;9.158;2022-08-19T11:42:32;19.50;;;17.70;;
1589;SDS011;788;48.720;9.158;2022-08-19T11:45:18;20.23;;;18.43;;
1589;SDS011;788;48.720;9.158;2022-08-19T11:47:45;20.17;;;18.27;;
1589;SDS011;788;48.720;9.158;2022-08-19T11:50:12;19.40;;;17.40;;
1589;SDS011;788;48.720;9.158;2022-08-19T11:52:39;19.03;;;17.13;;
1589;SDS011;788;48.720;9.158;2022-08-19T11:55:06;17.90;;;16.23;;
1589;SDS011;788;48.720;9.158;2022-08-19T11:57:34;19.27;;;17.33;;
1589;SDS011;788;48.720;9.158;2022-08-19T12:00:00;18.07;;;16.30;;
1589;SDS011;788;48.720;9.158;2022-08-19T12:02:31;17.30;;;15.63;;
1589;SDS011;788;48.720;9.158;2022-08-19T12:04:58;17.53;;;16.13;;
1589;SDS011;788;48.720;9.158;2022-08-19T12:07:27;18.23;;;16.37;;
1589;SDS011;788;48.720;9.158;2022-08-19T12:09:56;17.30;;;15.80;;
1589;SDS011;788;48.720;9.158;2022-08-19T12:12:23;16.60;;;15.00;;
1589;SDS011;788;48.720;9.158;2022-08-19T12:14:51;16.97;;;15.67;;
1589;SDS011;788;48.720;9.158;2022-08-19T12:17:21;16.30;;;14.83;;
1589;SDS011;788;48.720;9.158;2022-08-19T12:19:49;17.00;;;15.40;;
1589;SDS011;788;48.720;9.158;2022-08-19T12:22:18;15.30;;;14.00;;
1589;SDS011;788;48.720;9.158;2022-08-19T12:24:46;14.63;;;13.50;;
1589;SDS011;788;48.720;9.158;2022-08-19T12:27:15;17.07;;;15.67;;
1589;SDS011;788;48.720;9.158;2022-08-19T12:29:41;16.70;;;15.30;;
1589;SDS011;788;48.720;9.158;2022-08-19T12:32:08;19.47;;;17.77;;
1589;SDS011;788;48.720;9.158;2022-08-19T12:34:35;21.60;;;19.37;;
1589;SDS011;788;48.720;9.158;2022-08-19T12:37:05;23.67;;;21.53;;
1589;SDS011;788;48.720;9.158;2022-08-19T12:42:57;23.67;;;21.37;;
1589;SDS011;788;48.720;9.158;2022-08-19T12:45:38;24.47;;;22.07;;
1589;SDS011;788;48.720;9.158;2022-08-19T12:48:05;26.07;;;23.77;;
1589;SDS011;788;48.720;9.158;2022-08-19T12:50:44;25.20;;;22.70;;
1589;SDS011;788;48.720;9.158;2022-08-19T12:53:13;25.90;;;23.50;;
1589;SDS011;788;48.720;9.158;2022-08-19T12:55:41;25.57;;;22.90;;
1589;SDS011;788;48.720;9.158;2022-08-19T12:58:24;27.97;;;24.50;;
1589;SDS011;788;48.720;9.158;2022-08-19T13:00:51;30.77;;;27.67;;
1589;SDS011;788;48.720;9.158;2022-08-19T13:03:18;29.17;;;26.23;;
1589;SDS011;788;48.720;9.158;2022-08-19T13:05:57;29.47;;;26.33;;
1589;SDS011;788;48.720;9.158;2022-08-19T13:08:56;32.40;;;29.10;;
1589;SDS011;788;48.720;9.158;2022-08-19T13:11:26;28.03;;;25.33;;
1589;SDS011;788;48.720;9.158;2022-08-19T13:13:57;30.30;;;27.20;;
1589;SDS011;788;48.720;9.158;2022-08-19T13:16:27;30.40;;;27.60;;
1589;SDS011;788;48.720;9.158;2022-08-19T13:19:21;29.37;;;26.40;;
1589;SDS011;788;48.720;9.158;2022-08-19T13:22:32;29.20;;;26.20;;
1589;SDS011;788;48.720;9.158;2022-08-19T13:45:04;32.50;;;29.00;;
1589;SDS011;788;48.720;9.158;2022-08-19T13:54:53;29.73;;;26.53;;
1589;SDS011;788;48.720;9.158;2022-08-19T15:41:22;22.07;;;20.07;;
1589;SDS011;788;48.720;9.158;2022-08-19T15:44:09;22.67;;;20.73;;
1589;SDS011;788;48.720;9.158;2022-08-19T15:47:15;21.80;;;19.70;;
1589;SDS011;788;48.720;9.158;2022-08-19T15:50:06;22.17;;;20.17;;
1589;SDS011;788;48.720;9.158;2022-08-19T16:14:59;18.87;;;17.27;;
1589;SDS011;788;48.720;9.158;2022-08-19T16:17:26;18.40;;;17.00;;
1589;SDS011;788;48.720;9.158;2022-08-19T16:19:53;19.40;;;17.87;;
1589;SDS011;788;48.720;9.158;2022-08-19T16:22:20;17.70;;;16.10;;
1589;SDS011;788;48.720;9.158;2022-08-19T16:24:55;18.03;;;16.60;;
1589;SDS011;788;48.720;9.158;2022-08-19T16:27:24;17.93;;;16.60;;
1589;SDS011;788;48.720;9.158;2022-08-19T16:29:54;20.93;;;18.93;;
1589;SDS011;788;48.720;9.158;2022-08-19T16:32:22;19.10;;;17.67;;
1589;SDS011;788;48.720;9.158;2022-08-19T16:34:49;20.03;;;18.37;;
1589;SDS011;788;48.720;9.158;2022-08-19T16:37:16;21.03;;;19.30;;
1589;SDS011;788;48.720;9.158;2022-08-19T16:39:45;20.67;;;18.80;;
1589;SDS011;788;48.720;9.158;2022-08-19T16:42:14;20.60;;;18.90;;
1589;SDS011;788;48.720;9.158;2022-08-19T16:44:44;22.60;;;20.70;;
1589;SDS011;788;48.720;9.158;2022-08-19T16:47:15;23.80;;;21.40;;
1589;SDS011;788;48.720;9.158;2022-08-19T16:49:47;22.87;;;21.10;;
1589;SDS011;788;48.720;9.158;2022-08-19T16:52:14;22.60;;;20.63;;
1589;SDS011;788;48.720;9.158;2022-08-19T16:54:41;21.60;;;19.70;;
1589;SDS011;788;48.720;9.158;2022-08-19T16:57:08;23.03;;;20.93;;
1589;SDS011;788;48.720;9.158;2022-08-19T16:59:34;23.57;;;21.57;;
1589;SDS011;788;48.720;9.158;2022-08-19T17:02:01;21.23;;;19.60;;
1589;SDS011;788;48.720;9.158;2022-08-19T17:04:28;23.63;;;21.63;;
1589;SDS011;788;48.720;9.158;2022-08-19T17:06:56;25.97;;;23.07;;
1589;SDS011;788;48.720;9.158;2022-08-19T17:09:23;25.17;;;22.87;;
1589;SDS011;788;48.720;9.158;2022-08-19T17:11:50;24.50;;;22.00;;
1589;SDS011;788;48.720;9.158;2022-08-19T17:14:17;26.77;;;24.03;;
1589;SDS011;788;48.720;9.158;2022-08-19T17:16:44;25.90;;;23.40;;
1589;SDS011;788;48.720;9.158;2022-08-19T17:19:12;23.93;;;21.73;;
1589;SDS011;788;48.720;9.158;2022-08-19T17:21:39;25.60;;;23.20;;
1589;SDS011;788;48.720;9.158;2022-08-19T17:24:07;26.13;;;23.73;;
1589;SDS011;788;48.720;9.158;2022-08-19T17:26:35;27.27;;;24.83;;
1589;SDS011;788;48.720;9.158;2022-08-19T17:29:03;26.83;;;24.20;;
1589;SDS011;788;48.720;9.158;2022-08-19T17:31:31;27.07;;;24.60;;
1589;SDS011;788;48.720;9.158;2022-08-19T17:33:58;26.30;;;23.90;;
1589;SDS011;788;48.720;9.158;2022-08-19T17:36:26;26.13;;;23.70;;
1589;SDS011;788;48.720;9.158;2022-08-19T17:38:55;23.97;;;21.73;;
1589;SDS011;788;48.720;9.158;2022-08-19T17:41:26;24.47;;;22.20;;
1589;SDS011;788;48.720;9.158;2022-08-19T17:43:54;26.70;;;24.00;;
1589;SDS011;788;48.720;9.158;2022-08-19T17:46:21;24.03;;;21.73;;
1589;SDS011;788;48.720;9.158;2022-08-19T17:48:49;25.10;;;22.80;;
1589;SDS011;788;48.720;9.158;2022-08-19T17:51:21;25.87;;;23.37;;
1589;SDS011;788;48.720;9.158;2022-08-19T17:53:50;25.87;;;23.37;;
1589;SDS011;788;48.720;9.158;2022-08-19T17:56:17;27.73;;;25.03;;
1589;SDS011;788;48.720;9.158;2022-08-19T17:58:46;26.07;;;22.67;;
1589;SDS011;788;48.720;9.158;2022-08-19T18:01:13;27.70;;;25.10;;
1589;SDS011;788;48.720;9.158;2022-08-19T18:03:40;25.33;;;23.03;;
1589;SDS011;788;48.720;9.158;2022-08-19T18:06:07;27.53;;;25.03;;
1589;SDS011;788;48.720;9.158;2022-08-19T18:08:35;26.37;;;23.97;;
1589;SDS011;788;48.720;9.158;2022-08-19T18:11:03;28.40;;;25.67;;
1589;SDS011;788;48.720;9.158;2022-08-19T18:13:30;29.33;;;26.53;;
1589;SDS011;788;48.720;9.158;2022-08-19T18:15:58;29.13;;;26.30;;
1589;SDS011;788;48.720;9.158;2022-08-19T18:18:25;27.77;;;24.97;;
1589;SDS011;788;48.720;9.158;2022-08-19T18:20:53;31.40;;;28.37;;
1589;SDS011;788;48.720;9.158;2022-08-19T18:23:21;28.07;;;25.37;;
1589;SDS011;788;48.720;9.158;2022-08-19T18:25:48;29.00;;;26.13;;
1589;SDS011;788;48.720;9.158;2022-08-19T18:28:15;29.97;;;27.17;;
1589;SDS011;788;48.720;9.158;2022-08-19T18:30:42;29.90;;;26.90;;
1589;SDS011;788;48.720;9.158;2022-08-19T18:33:10;30.57;;;27.43;;
1589;SDS011;788;48.720;9.158;2022-08-19T18:35:39;27.80;;;25.00;;
1589;SDS011;788;48.720;9.158;2022-08-19T18:38:09;28.67;;;25.67;;
1589;SDS011;788;48.720;9.158;2022-08-19T18:40:51;28.07;;;25.30;;
1589;SDS011;788;48.720;9.158;2022-08-19T18:43:35;29.70;;;26.80;;
1589;SDS011;788;48.720;9.158;2022-08-19T18:46:19;31.80;;;28.80;;
1589;SDS011;788;48.720;9.158;2022-08-19T18:49:05;29.03;;;26.20;;
1589;SDS011;788;48.720;9.158;2022-08-19T18:51:33;28.90;;;26.00;;
1589;SDS011;788;48.720;9.158;2022-08-19T18:54:00;28.97;;;26.37;;
1589;SDS011;788;48.720;9.158;2022-08-19T18:56:27;28.47;;;25.77;;